Data for 12/10/2015

Time Sea-Level Adjusted Pressure Absolute Pressure Temperature Relative Humidity Dew Point   
(mb) (inHg) (mb) (inHg) (C) (F) (%) (C) (F)
00:05 1012 29.88 841 24.83 2.6 36.6 51 -6.5 20.4
00:10 1012 29.88 841 24.83 2.4 36.4 53 -6.3 20.7
00:15 1012 29.88 841 24.83 2.3 36.1 54 -6.2 20.9
00:20 1012 29.88 841 24.83 2.1 35.9 54 -6.3 20.6
00:25 1012 29.88 841 24.83 2 35.7 54 -6.3 20.7
00:30 1012 29.88 841 24.83 1.9 35.5 55 -6.1 21
00:35 1012 29.88 841 24.83 1.8 35.2 55 -6.3 20.7
00:40 1012 29.88 841 24.83 1.7 35 57 -6 21.2
00:45 1012 29.88 841 24.83 1.4 34.6 57 -6.2 20.9
00:50 1012 29.88 841 24.83 1.4 34.6 57 -6.3 20.7
00:55 1012 29.88 841 24.83 1.5 34.7 56 -6.3 20.7
01:00 1012 29.88 841 24.83 1.4 34.6 57 -6.2 20.9
01:05 1012 29.88 842 24.86 1.5 34.6 57 -6.2 20.9
01:10 1012 29.88 842 24.86 1.5 34.7 57 -6.2 20.8
01:15 1012 29.88 841 24.83 1.5 34.7 57 -6.2 20.8
01:20 1012 29.88 841 24.83 1.5 34.6 56 -6.3 20.6
01:25 1012 29.88 841 24.83 1.5 34.6 55 -6.5 20.2
01:30 1012 29.88 842 24.86 1.5 34.7 55 -6.7 20
01:35 1012 29.88 842 24.86 1.6 34.8 54 -6.7 19.9
01:40 1012 29.88 842 24.86 1.5 34.7 55 -6.7 19.9
01:45 1012 29.88 841 24.83 1.4 34.5 55 -6.7 19.9
01:50 1012 29.88 841 24.83 1.4 34.6 53 -7 19.3
01:55 1012 29.88 841 24.83 1.5 34.7 53 -7.1 19.3
02:00 1012 29.88 841 24.83 1.6 34.8 53 -7.1 19.2
02:05 1012 29.88 841 24.83 1.6 34.8 53 -7.1 19.2
02:10 1012 29.88 841 24.83 1.5 34.7 54 -6.8 19.8
02:15 1012 29.88 841 24.83 1.4 34.5 53 -7.1 19.2
02:20 1012 29.88 841 24.83 1.4 34.6 53 -7.1 19.3
02:25 1012 29.88 841 24.83 1.4 34.6 53 -7.1 19.2
02:30 1012 29.88 841 24.83 1.5 34.7 52 -7.2 19
02:35 1012 29.88 841 24.83 1.6 34.8 51 -7.4 18.7
02:40 1012 29.88 841 24.83 1.7 35 51 -7.4 18.7
02:45 1012 29.88 841 24.83 1.7 35.1 52 -7 19.4
02:50 1012 29.88 841 24.83 1.6 34.9 54 -6.8 19.7
02:55 1012 29.88 841 24.83 1.3 34.4 55 -6.8 19.7
03:00 1012 29.88 841 24.83 1 33.8 59 -6.2 20.8
03:05 1012 29.88 841 24.83 1 33.7 58 -6.4 20.5
03:10 1012 29.88 841 24.83 1 33.8 55 -7.1 19.2
03:15 1012 29.88 841 24.83 0.9 33.6 56 -7 19.4
03:20 1012 29.88 842 24.86 0.8 33.4 57 -6.9 19.5
03:25 1013 29.91 842 24.86 0.6 33.1 57 -7 19.4
03:30 1013 29.91 842 24.86 0.6 33.1 56 -7.1 19.2
03:35 1013 29.91 842 24.86 0.7 33.2 56 -7.2 19.1
03:40 1013 29.91 842 24.86 0.7 33.3 55 -7.3 18.8
03:45 1013 29.91 842 24.86 0.7 33.3 57 -6.8 19.7
03:50 1012 29.88 842 24.86 0.6 33 58 -6.8 19.8
03:55 1012 29.88 841 24.83 0.6 33 57 -7 19.4
04:00 1012 29.88 841 24.83 0.7 33.2 55 -7.3 18.9
04:05 1012 29.88 841 24.83 0.7 33.3 57 -6.8 19.7
04:10 1012 29.88 841 24.83 0.6 33.1 57 -7 19.4
04:15 1011 29.85 841 24.83 0.4 32.8 59 -6.6 20.1
04:20 1012 29.88 841 24.83 0.3 32.5 56 -7.4 18.6
04:25 1012 29.88 841 24.83 0.5 32.9 57 -7 19.4
04:30 1011 29.85 841 24.83 0.3 32.5 60 -6.6 20.1
04:35 1011 29.85 841 24.83 -0.2 31.6 60 -7.1 19.2
04:40 1011 29.85 840 24.81 -0 32 55 -7.9 17.8
04:45 1011 29.85 840 24.81 0.5 32.8 56 -7.4 18.7
04:50 1011 29.85 840 24.81 0.4 32.8 56 -7.3 18.9
04:55 1011 29.85 841 24.83 0.3 32.6 57 -7.3 18.8
05:00 1011 29.85 841 24.83 0.1 32.2 57 -7.3 18.8
05:05 1011 29.85 841 24.83 0.1 32.2 54 -8.1 17.5
05:10 1011 29.85 840 24.81 0.3 32.6 54 -8 17.7
05:15 1011 29.85 841 24.83 0.3 32.6 55 -7.6 18.3
05:20 1011 29.85 841 24.83 0.2 32.4 53 -8.2 17.3
05:25 1011 29.85 840 24.81 0.3 32.6 52 -8.4 16.9
05:30 1011 29.85 840 24.81 0.4 32.7 51 -8.6 16.5
05:35 1011 29.85 840 24.81 0.3 32.6 52 -8.3 17
05:40 1011 29.85 840 24.81 0.3 32.6 48 -9.3 15.2
05:45 1011 29.85 840 24.81 0.7 33.3 47 -9.4 15
05:50 1011 29.85 840 24.81 0.9 33.7 47 -9.1 15.7
05:55 1010 29.83 840 24.81 0.9 33.5 52 -8 17.5
06:00 1010 29.83 839 24.78 0.3 32.6 52 -8.4 16.9
06:05 1010 29.83 839 24.78 -0 31.9 52 -8.6 16.4
06:10 1010 29.83 839 24.78 0 32.1 50 -9.3 15.3
06:15 1010 29.83 839 24.78 0.3 32.5 50 -9.1 15.7
06:20 1010 29.83 839 24.78 0.7 33.2 44 -10.3 13.5
06:25 1010 29.83 839 24.78 1.4 34.5 41 -10.4 13.3
06:30 1009 29.8 839 24.78 1.6 34.8 44 -9.3 15.3
06:35 1009 29.8 839 24.78 1.3 34.3 48 -8.5 16.8
06:40 1009 29.8 839 24.78 0.7 33.2 46 -9.7 14.5
06:45 1009 29.8 839 24.78 0.3 32.6 56 -7.5 18.4
06:50 1009 29.8 838 24.75 -0.8 30.6 58 -8.1 17.4
06:55 1009 29.8 838 24.75 -0.9 30.4 58 -8.2 17.3
07:00 1009 29.8 838 24.75 -0.9 30.3 58 -8.2 17.3
07:05 1009 29.8 838 24.75 -0.8 30.6 57 -8.3 17.1
07:10 1009 29.8 838 24.75 -0.7 30.8 57 -8.2 17.2
07:15 1009 29.8 838 24.75 -0.7 30.7 58 -7.9 17.8
07:20 1009 29.8 838 24.75 -0.8 30.5 58 -8 17.6
07:25 1008 29.77 838 24.75 -0.8 30.6 57 -8.2 17.3
07:30 1008 29.77 838 24.75 -0.4 31.2 53 -8.9 15.9
07:35 1008 29.77 838 24.75 -0.2 31.7 52 -8.9 16
07:40 1008 29.77 838 24.75 0.1 32.2 52 -8.7 16.4
07:45 1008 29.77 838 24.75 0.1 32.2 51 -8.8 16.1
07:50 1008 29.77 838 24.75 0.1 32.3 52 -8.7 16.4
07:55 1008 29.77 838 24.75 0.2 32.3 50 -9.1 15.6
08:00 1008 29.77 837 24.72 0.3 32.6 50 -8.9 16
08:05 1008 29.77 837 24.72 0.3 32.5 51 -8.8 16.1
08:10 1008 29.77 837 24.72 0.3 32.5 50 -9 15.8
08:15 1008 29.77 837 24.72 0.5 32.8 49 -9.2 15.5
08:20 1008 29.77 837 24.72 0.5 33 49 -8.9 15.9
08:25 1008 29.77 837 24.72 0.5 32.9 49 -9 15.8
08:30 1007 29.74 837 24.72 0.5 32.9 49 -8.9 16
08:35 1007 29.74 836 24.69 0.5 32.9 49 -8.9 16
08:40 1007 29.74 836 24.69 0.5 32.9 50 -8.8 16.2
08:45 1007 29.74 836 24.69 0.5 32.8 51 -8.6 16.5
08:50 1007 29.74 836 24.69 0.5 32.9 51 -8.5 16.6
08:55 1007 29.74 836 24.69 0.5 32.8 50 -8.7 16.3
09:00 1006 29.71 836 24.69 0.5 33 49 -8.9 16
09:05 1006 29.71 835 24.66 0.7 33.3 48 -9 15.8
09:10 1006 29.71 835 24.66 0.9 33.7 48 -9 15.8
09:15 1006 29.71 835 24.66 1 33.9 47 -9 15.8
09:20 1006 29.71 835 24.66 1.1 34 45 -9.7 14.6
09:25 1006 29.71 835 24.66 1.4 34.5 44 -9.5 14.8
09:30 1006 29.71 835 24.66 1.4 34.6 45 -9.2 15.4
09:35 1005 29.68 835 24.66 1.4 34.6 46 -9 15.8
09:40 1005 29.68 834 24.63 1.5 34.7 45 -9.1 15.6
09:45 1005 29.68 834 24.63 1.8 35.2 44 -9.3 15.3
09:50 1005 29.68 834 24.63 1.9 35.4 44 -9.2 15.4
09:55 1005 29.68 834 24.63 2 35.6 42 -9.5 14.9
10:00 1005 29.68 834 24.63 2.1 35.8 41 -9.9 14.2
10:05 1005 29.68 834 24.63 2.3 36.1 42 -9.4 15
10:10 1005 29.68 834 24.63 2.4 36.3 41 -9.4 15.1
10:15 1005 29.68 834 24.63 2.5 36.4 42 -9.3 15.3
10:20 1005 29.68 834 24.63 2.5 36.5 42 -9.3 15.2
10:25 1005 29.68 834 24.63 2.6 36.6 41 -9.5 14.9
10:30 1005 29.68 834 24.63 2.8 37 40 -9.5 14.8
10:35 1005 29.68 834 24.63 3.1 37.5 40 -9.2 15.5
10:40 1005 29.68 834 24.63 3.1 37.5 41 -8.9 15.9
10:45 1004 29.65 834 24.63 3.1 37.5 39 -9.6 14.7
10:50 1004 29.65 833 24.6 3.4 38.1 38 -9.7 14.5
10:55 1004 29.65 833 24.6 3.6 38.5 40 -8.8 16.2
11:00 1004 29.65 833 24.6 3.4 38.2 42 -8.3 17.1
11:05 1004 29.65 833 24.6 3.3 37.9 44 -7.9 17.7
11:10 1004 29.65 833 24.6 3.2 37.7 45 -7.7 18.2
11:15 1004 29.65 833 24.6 3.2 37.7 46 -7.4 18.8
11:20 1004 29.65 833 24.6 3.1 37.6 48 -6.9 19.6
11:25 1004 29.65 833 24.6 3 37.4 49 -6.7 19.9
11:30 1004 29.65 833 24.6 3.1 37.6 48 -6.8 19.8
11:35 1004 29.65 833 24.6 3.3 37.9 47 -6.9 19.6
11:40 1003 29.62 833 24.6 3.2 37.8 48 -6.8 19.8
11:45 1003 29.62 832 24.57 3.2 37.8 48 -6.8 19.7
11:50 1003 29.62 832 24.57 3.4 38.1 48 -6.5 20.3
11:55 1003 29.62 832 24.57 3.4 38.1 50 -6.1 20.9
12:00 1003 29.62 832 24.57 3.4 38.2 51 -5.9 21.4
12:05 1003 29.62 832 24.57 3.4 38.2 50 -6 21.3
12:10 1002 29.59 832 24.57 3.5 38.3 50 -6.1 21.1
12:15 1002 29.59 832 24.57 3.5 38.3 52 -5.4 22.3
12:20 1002 29.59 831 24.54 3.2 37.7 55 -5 23.1
12:25 1002 29.59 831 24.54 2.9 37.2 56 -5 23
12:30 1002 29.59 831 24.54 2.8 37.1 56 -5.1 22.8
12:35 1001 29.56 831 24.54 2.9 37.3 54 -5.4 22.3
12:40 1001 29.56 830 24.51 3 37.5 53 -5.5 22.1
12:45 1001 29.56 830 24.51 3.1 37.7 53 -5.6 21.9
12:50 1001 29.56 830 24.51 3.2 37.8 52 -5.7 21.7
12:55 1001 29.56 830 24.51 3.2 37.8 52 -5.8 21.6
13:00 1001 29.56 830 24.51 3.3 37.9 51 -5.8 21.6
13:05 1001 29.56 830 24.51 3.3 38 51 -6 21.2
13:10 1000 29.53 830 24.51 3.3 38 51 -5.9 21.5
13:15 1000 29.53 829 24.48 3.4 38.2 49 -6.2 20.9
13:20 1000 29.53 829 24.48 3.5 38.3 50 -6 21.1
13:25 1000 29.53 829 24.48 3.5 38.3 50 -5.9 21.4
13:30 1000 29.53 829 24.48 3.5 38.4 50 -5.9 21.3
13:35 1000 29.53 829 24.48 3.6 38.5 50 -5.9 21.3
13:40 1000 29.53 829 24.48 3.6 38.6 50 -5.7 21.7
13:45 1000 29.53 829 24.48 3.7 38.6 50 -5.7 21.7
13:50 1000 29.53 829 24.48 3.7 38.7 49 -5.9 21.3
13:55 1000 29.53 829 24.48 3.7 38.7 50 -5.7 21.7
14:00 1000 29.53 829 24.48 3.7 38.7 50 -5.7 21.8
14:05 1000 29.53 829 24.48 3.9 39 52 -5.1 22.8
14:10 1000 29.53 829 24.48 3.6 38.5 54 -4.9 23.1
14:15 1000 29.53 829 24.48 3.5 38.3 53 -5.2 22.7
14:20 1000 29.53 829 24.48 3.7 38.6 56 -4.4 24.2
14:25 1000 29.53 829 24.48 3.2 37.8 63 -3.2 26.2
14:30 1000 29.53 829 24.48 2.6 36.6 70 -2.3 27.9
14:35 1000 29.53 829 24.48 2.1 35.7 74 -2.2 28.1
14:40 1000 29.53 829 24.48 1.9 35.5 75 -2 28.4
14:45 1000 29.53 829 24.48 1.8 35.3 77 -1.8 28.7
14:50 1000 29.53 829 24.48 1.9 35.3 77 -1.8 28.8
14:55 1000 29.53 829 24.48 1.8 35.2 77 -1.8 28.7
15:00 1000 29.53 829 24.48 1.8 35.3 78 -1.6 29.2
15:05 1000 29.53 829 24.48 1.6 34.9 79 -1.6 29.2
15:10 1000 29.53 829 24.48 1.4 34.5 81 -1.5 29.3
15:15 1000 29.53 829 24.48 1.3 34.3 80 -1.7 28.9
15:20 1000 29.53 829 24.48 1.5 34.7 79 -1.7 28.9
15:25 1000 29.53 829 24.48 1.8 35.2 76 -1.9 28.5
15:30 999 29.5 829 24.48 2 35.6 75 -1.9 28.5
15:35 999 29.5 828 24.45 2.2 35.9 74 -2 28.4
15:40 999 29.5 829 24.48 2.4 36.2 73 -2.1 28.3
15:45 999 29.5 828 24.45 2.2 35.9 74 -2 28.4
15:50 999 29.5 828 24.45 2.1 35.8 74 -2.1 28.2
15:55 999 29.5 828 24.45 2.2 36 74 -2 28.4
16:00 999 29.5 828 24.45 2.2 36 73 -2.2 28
16:05 999 29.5 828 24.45 2.3 36.2 72 -2.2 28.1
16:10 999 29.5 828 24.45 2.4 36.4 72 -2.1 28.1
16:15 999 29.5 828 24.45 2.6 36.6 72 -2 28.4
16:20 999 29.5 828 24.45 2.7 36.9 71 -2 28.4
16:25 999 29.5 828 24.45 2.8 37.1 71 -1.9 28.5
16:30 999 29.5 828 24.45 2.9 37.2 70 -2 28.4
16:35 999 29.5 828 24.45 2.9 37.2 70 -2 28.4
16:40 999 29.5 828 24.45 3 37.4 70 -2 28.5
16:45 999 29.5 828 24.45 3.1 37.5 70 -1.9 28.6
16:50 999 29.5 828 24.45 3.1 37.5 70 -1.9 28.5
16:55 999 29.5 828 24.45 3.1 37.6 70 -1.9 28.6
17:00 999 29.5 828 24.45 2.7 36.9 75 -1.3 29.7
17:05 999 29.5 828 24.45 1.5 34.8 79 -1.6 29.1
17:10 999 29.5 828 24.45 1.2 34.1 81 -1.7 28.9
17:15 999 29.5 828 24.45 1.2 34.1 81 -1.8 28.8
17:20 999 29.5 828 24.45 1.3 34.3 80 -1.8 28.7
17:25 999 29.5 828 24.45 1.3 34.4 79 -1.9 28.5
17:30 999 29.5 829 24.48 1.4 34.5 79 -1.9 28.5
17:35 999 29.5 829 24.48 1.4 34.4 78 -2 28.4
17:40 1000 29.53 829 24.48 1.4 34.5 78 -2.1 28.3
17:45 1000 29.53 830 24.51 1.3 34.4 80 -1.8 28.7
17:50 1001 29.56 830 24.51 1 33.9 82 -1.7 29
17:55 1001 29.56 830 24.51 0.8 33.4 84 -1.6 29.1
18:00 1001 29.56 830 24.51 0.5 32.9 85 -1.7 28.9
18:05 1001 29.56 831 24.54 0.5 32.9 85 -1.7 28.9
18:10 1001 29.56 831 24.54 0.5 32.9 85 -1.7 29
18:15 1001 29.56 831 24.54 0.5 32.8 87 -1.4 29.5
18:20 1002 29.59 831 24.54 0.4 32.7 89 -1.2 29.8
18:25 1001 29.56 831 24.54 0.3 32.6 90 -1.1 30
18:30 1002 29.59 831 24.54 0.2 32.4 92 -1 30.2
18:35 1002 29.59 831 24.54 0.2 32.4 92 -0.9 30.4
18:40 1002 29.59 831 24.54 0.2 32.4 93 -0.8 30.5
18:45 1002 29.59 831 24.54 0.2 32.4 93 -0.8 30.6
18:50 1002 29.59 831 24.54 0.2 32.4 93 -0.8 30.6
18:55 1002 29.59 831 24.54 0.2 32.4 93 -0.8 30.5
19:00 1002 29.59 831 24.54 0.1 32.2 93 -0.9 30.4
19:05 1002 29.59 831 24.54 -0 32 94 -0.9 30.3
19:10 1002 29.59 831 24.54 -0 32 94 -0.9 30.3
19:15 1002 29.59 831 24.54 -0 32 94 -0.9 30.4
19:20 1002 29.59 831 24.54 -0 31.9 94 -1 30.3
19:25 1002 29.59 831 24.54 -0 31.9 94 -1 30.3
19:30 1002 29.59 831 24.54 -0 32 93 -1 30.3
19:35 1002 29.59 831 24.54 -0 32 93 -1 30.3
19:40 1002 29.59 831 24.54 -0 31.9 93 -1 30.2
19:45 1002 29.59 831 24.54 -0 31.9 93 -1 30.1
19:50 1002 29.59 831 24.54 -0 32 93 -1.1 30
19:55 1002 29.59 831 24.54 0.1 32.2 89 -1.6 29.2
20:00 1002 29.59 831 24.54 0.3 32.6 85 -1.9 28.6
20:05 1002 29.59 831 24.54 0.5 33 84 -1.9 28.5
20:10 1002 29.59 831 24.54 0.5 32.9 83 -2.1 28.2
20:15 1002 29.59 831 24.54 0.5 32.9 83 -2.1 28.2
20:20 1002 29.59 831 24.54 0.3 32.5 86 -1.8 28.8
20:25 1002 29.59 831 24.54 0.1 32.2 83 -2.4 27.7
20:30 1002 29.59 832 24.57 0.1 32.1 85 -2.2 28
20:35 1002 29.59 832 24.57 -0.1 31.8 86 -2.2 28
20:40 1002 29.59 832 24.57 -0.4 31.2 88 -2.2 28.1
20:45 1002 29.59 832 24.57 -0.6 30.9 90 -2.1 28.3
20:50 1003 29.62 832 24.57 -0.5 31 88 -2.3 27.9
20:55 1003 29.62 832 24.57 -0.5 31.2 79 -3.6 25.5
21:00 1003 29.62 832 24.57 -0.2 31.6 75 -4.1 24.5
21:05 1003 29.62 832 24.57 -0 32 73 -4.4 24.1
21:10 1003 29.62 832 24.57 -0.2 31.6 72 -4.6 23.7
21:15 1003 29.62 832 24.57 0 32 69 -5 23.1
21:20 1003 29.62 832 24.57 0.2 32.4 69 -4.8 23.4
21:25 1003 29.62 832 24.57 0.1 32.2 70 -4.7 23.6
21:30 1003 29.62 832 24.57 -0.7 30.7 79 -4 24.8
21:35 1003 29.62 832 24.57 -1.9 28.6 81 -4.7 23.5
21:40 1003 29.62 832 24.57 -1.9 28.6 80 -4.8 23.3
21:45 1003 29.62 832 24.57 -1.7 28.9 80 -4.7 23.6
21:50 1003 29.62 832 24.57 -1.4 29.5 78 -4.7 23.6
21:55 1003 29.62 832 24.57 -1.3 29.6 79 -4.5 23.9
22:00 1003 29.62 832 24.57 -0.8 30.5 79 -4.1 24.7
22:05 1003 29.62 832 24.57 -0.9 30.3 79 -4.1 24.7
22:10 1003 29.62 832 24.57 -1.2 29.8 79 -4.4 24.1
22:15 1003 29.62 832 24.57 -0.9 30.4 76 -4.5 23.9
22:20 1003 29.62 832 24.57 -0.7 30.7 77 -4.3 24.3
22:25 1003 29.62 832 24.57 -0.6 30.9 76 -4.3 24.3
22:30 1003 29.62 832 24.57 -0.5 31.1 76 -4.3 24.3
22:35 1003 29.62 832 24.57 -0.3 31.5 75 -4.2 24.4
22:40 1003 29.62 832 24.57 0.2 32.4 73 -4 24.7
22:45 1003 29.62 832 24.57 -0.1 31.8 76 -3.8 25.2
22:50 1003 29.62 832 24.57 -0.8 30.6 76 -4.5 23.9
22:55 1003 29.62 832 24.57 -0.5 31 76 -4.2 24.5
23:00 1003 29.62 832 24.57 -0.6 30.9 78 -4 24.9
23:05 1003 29.62 832 24.57 -0.4 31.3 77 -4 24.9
23:10 1003 29.62 832 24.57 -0.2 31.6 77 -3.8 25.1
23:15 1003 29.62 832 24.57 -0.2 31.6 77 -3.8 25.2
23:20 1003 29.62 832 24.57 -0.4 31.3 76 -4.1 24.6
23:25 1003 29.62 832 24.57 -0.4 31.3 76 -4.1 24.7
23:30 1003 29.62 832 24.57 -0.6 30.9 78 -4.1 24.7
23:35 1003 29.62 832 24.57 -0.7 30.7 78 -4.1 24.7
23:40 1003 29.62 832 24.57 -0.7 30.8 78 -4.1 24.6
23:45 1003 29.62 833 24.6 -0.6 31 77 -4.1 24.6
23:50 1003 29.62 833 24.6 -0.5 31.1 77 -4.1 24.7
23:55 1003 29.62 833 24.6 -0.4 31.3 75 -4.3 24.2
24:00 1004 29.65 833 24.6 -0.5 31.2 75 -4.3 24.3